Portada
METAR-TAF:

METAR-TAF

Aeroports :

Pyongyang, Corea del Nord

latitud: 39-02N, longitud: 125-47E, altitud: 36 m

METAR: manca

Hora: 07:32 (22:32 UTC)

Pronòstic

L'informe es va fer fa 18 hores i 42 minuts, a les 03:50 UTC
Pronòstic vàlid del 31 a les 06 UTC al 01 a les 06 UTC
Vent 10 kt del Sud-Oest
Visibilitat 10 km o més
Núvols disperses a una alçada de 3000 ft
Evolucionant progressivament
l' 31 a les 11 UTC al 31 a les 13 UTC
Cel cobert a una alçada de 2000 ft

TAF: ZKPY 310350Z 3106/0106 22005MPS 9999 SCT030 TX28/3107Z TN17/3118Z BECMG 3111/3113 OVC020

Observacions i pronòstics meteorològics de més de 4000 aeroports (METAR i TAF).

Les estacions disponibles són els punts grocs i vermells al mapa.

Posi el ratolí al punt desitjat per veure el nom de l'estació.

Feu clic per veure les observacions i els pronòstics meteorològics.

Per canviar el mapa: feu clic els botons verds amb una creu de color negre per apropar; al botó verd amb un guió per allunyar la imatge; o en les fletxes verdes per a mapes adjacents.


METAR-TAF: